createdAt,value
2022-12-14T00:01:32.047Z,-2.26
2022-12-14T00:03:58.611Z,-2.16
2022-12-14T00:06:30.188Z,-2.13
2022-12-14T00:08:59.371Z,-2.19
2022-12-14T00:11:26.232Z,-2.16
2022-12-14T00:13:55.116Z,-2.18
2022-12-14T00:16:23.950Z,-2.21
2022-12-14T00:18:52.818Z,-2.20
2022-12-14T00:21:20.819Z,-2.20
2022-12-14T00:23:48.458Z,-2.19
2022-12-14T00:26:20.812Z,-2.19
2022-12-14T00:28:52.210Z,-2.21
2022-12-14T00:31:19.217Z,-2.19
2022-12-14T00:33:46.104Z,-2.20
2022-12-14T00:36:13.145Z,-2.22
2022-12-14T00:38:40.579Z,-2.22
2022-12-14T00:41:08.453Z,-2.22
2022-12-14T00:43:35.657Z,-2.26
2022-12-14T00:46:02.351Z,-2.23
2022-12-14T00:48:30.093Z,-2.34
2022-12-14T00:50:57.711Z,-2.27
2022-12-14T00:53:25.443Z,-2.27
2022-12-14T00:55:52.507Z,-2.29
2022-12-14T00:58:23.056Z,-2.37
2022-12-14T01:01:00.308Z,-2.33
2022-12-14T01:03:27.281Z,-2.33
2022-12-14T01:05:56.571Z,-2.33
2022-12-14T01:08:24.156Z,-2.33
2022-12-14T01:10:51.934Z,-2.37
2022-12-14T01:13:18.713Z,-2.36
2022-12-14T01:15:45.437Z,-2.36
2022-12-14T01:18:14.448Z,-2.36
2022-12-14T01:20:40.975Z,-2.36
2022-12-14T01:23:09.849Z,-2.43
2022-12-14T01:25:36.425Z,-2.37
2022-12-14T01:28:05.175Z,-2.36
2022-12-14T01:30:31.765Z,-2.36
2022-12-14T01:32:58.302Z,-2.45
2022-12-14T01:35:24.965Z,-2.44
2022-12-14T01:37:54.015Z,-2.48
2022-12-14T01:40:20.548Z,-2.40
2022-12-14T01:42:49.365Z,-2.44
2022-12-14T01:45:21.817Z,-2.39
2022-12-14T01:47:56.781Z,-2.40
2022-12-14T01:50:29.463Z,-2.40
2022-12-14T01:53:05.861Z,-2.40
2022-12-14T01:55:38.467Z,-2.41
2022-12-14T01:58:13.952Z,-2.41
2022-12-14T02:00:41.277Z,-2.41
2022-12-14T02:03:20.517Z,-2.39
2022-12-14T02:05:52.341Z,-2.40
2022-12-14T02:08:21.183Z,-2.45
2022-12-14T02:10:50.342Z,-2.47
2022-12-14T02:13:28.271Z,-2.43
2022-12-14T02:15:55.105Z,-2.50
2022-12-14T02:18:23.754Z,-2.49
2022-12-14T02:21:08.282Z,-2.43
2022-12-14T02:24:02.492Z,-2.47
2022-12-14T02:26:58.013Z,-2.44
2022-12-14T02:29:55.724Z,-2.43
2022-12-14T02:32:28.069Z,-2.43
2022-12-14T02:35:10.639Z,-2.43
2022-12-14T02:38:06.678Z,-2.42
2022-12-14T02:40:48.624Z,-2.43
2022-12-14T02:43:30.685Z,-2.46
2022-12-14T02:46:15.875Z,-2.45
2022-12-14T02:49:06.172Z,-2.45
2022-12-14T02:51:47.923Z,-2.46
2022-12-14T02:54:31.861Z,-2.54
2022-12-14T02:57:14.351Z,-2.48
2022-12-14T02:59:43.884Z,-2.46
2022-12-14T03:02:12.438Z,-2.46
2022-12-14T03:04:47.637Z,-2.50
2022-12-14T03:07:48.905Z,-2.44
2022-12-14T03:10:30.766Z,-2.43
2022-12-14T03:13:05.476Z,-2.44
2022-12-14T03:15:33.748Z,-2.51
2022-12-14T03:18:05.920Z,-2.47
2022-12-14T03:20:38.092Z,-2.40
2022-12-14T03:23:12.483Z,-2.40
2022-12-14T03:25:50.753Z,-2.46
2022-12-14T03:28:30.540Z,-2.47
2022-12-14T03:31:06.819Z,-2.50
2022-12-14T03:33:36.850Z,-2.45
2022-12-14T03:36:19.099Z,-2.50
2022-12-14T03:38:55.506Z,-2.46
2022-12-14T03:41:31.044Z,-2.49
2022-12-14T03:44:18.810Z,-2.50
2022-12-14T03:47:02.532Z,-2.54
2022-12-14T03:50:12.430Z,-2.53
2022-12-14T03:53:00.547Z,-2.55
2022-12-14T03:55:43.066Z,-2.61
2022-12-14T03:58:18.651Z,-2.56
2022-12-14T04:01:08.356Z,-2.57
2022-12-14T04:03:59.000Z,-2.64
2022-12-14T04:06:54.685Z,-2.62
2022-12-14T04:09:23.844Z,-2.63
2022-12-14T04:12:33.173Z,-2.63
2022-12-14T04:15:28.252Z,-2.65
2022-12-14T04:18:18.200Z,-2.71
2022-12-14T04:20:54.604Z,-2.67
2022-12-14T04:24:18.590Z,-2.67
2022-12-14T04:27:04.461Z,-2.73
2022-12-14T04:29:52.264Z,-2.65
2022-12-14T04:32:25.630Z,-2.75
2022-12-14T04:35:02.740Z,-2.74
2022-12-14T04:37:31.643Z,-2.66
2022-12-14T04:40:05.484Z,-2.77
2022-12-14T04:42:41.690Z,-2.66
2022-12-14T04:45:21.988Z,-2.71
2022-12-14T04:48:00.477Z,-2.71
2022-12-14T04:50:36.505Z,-2.70
2022-12-14T04:53:15.518Z,-2.67
2022-12-14T04:56:00.775Z,-2.66
2022-12-14T04:58:30.010Z,-2.66
2022-12-14T05:01:05.538Z,-2.66
2022-12-14T05:03:36.148Z,-2.67
2022-12-14T05:06:17.244Z,-2.66
2022-12-14T05:08:55.931Z,-2.67
2022-12-14T05:14:36.656Z,-2.65
2022-12-14T05:17:08.884Z,-2.70
2022-12-14T05:19:36.732Z,-2.63
2022-12-14T05:22:08.129Z,-2.63
2022-12-14T05:24:34.784Z,-2.62
2022-12-14T05:27:01.324Z,-2.65
2022-12-14T05:29:27.918Z,-2.62
2022-12-14T05:31:56.883Z,-2.60
2022-12-14T05:34:23.492Z,-2.64
2022-12-14T05:36:50.031Z,-2.62
2022-12-14T05:39:16.688Z,-2.65
2022-12-14T05:41:43.504Z,-2.59
2022-12-14T05:44:12.475Z,-2.59
2022-12-14T05:46:39.053Z,-2.59
2022-12-14T05:49:05.755Z,-2.59
2022-12-14T05:51:32.289Z,-2.61
2022-12-14T05:54:01.413Z,-2.61
2022-12-14T05:56:27.998Z,-2.61
2022-12-14T05:58:54.572Z,-2.62
2022-12-14T06:01:21.166Z,-2.67
2022-12-14T06:03:47.756Z,-2.76
2022-12-14T06:06:14.874Z,-2.70
2022-12-14T06:08:44.804Z,-2.70
2022-12-14T06:11:16.120Z,-2.73
2022-12-14T06:13:43.457Z,-2.74
2022-12-14T06:16:15.827Z,-2.77
2022-12-14T06:18:43.669Z,-2.78
2022-12-14T06:21:10.601Z,-2.78
2022-12-14T06:23:37.080Z,-2.89
2022-12-14T06:26:03.810Z,-2.87
2022-12-14T06:28:30.371Z,-2.83
2022-12-14T06:30:56.941Z,-2.86
2022-12-14T06:33:23.596Z,-2.81
2022-12-14T06:35:52.394Z,-2.83
2022-12-14T06:38:20.337Z,-2.86
2022-12-14T06:40:49.155Z,-2.89
2022-12-14T06:43:15.692Z,-2.90
2022-12-14T06:45:42.285Z,-3.07
2022-12-14T06:48:09.020Z,-2.98
2022-12-14T06:50:38.269Z,-2.95
2022-12-14T06:53:04.769Z,-2.95
2022-12-14T06:55:31.409Z,-2.95
2022-12-14T06:57:57.954Z,-2.96
2022-12-14T07:00:25.377Z,-2.97
2022-12-14T07:02:52.287Z,-3.14
2022-12-14T07:05:18.928Z,-3.05
2022-12-14T07:07:45.434Z,-3.15
2022-12-14T07:10:12.929Z,-3.10
2022-12-14T07:12:44.277Z,-3.33
2022-12-14T07:15:11.323Z,-3.17
2022-12-14T07:17:38.093Z,-3.25
2022-12-14T07:20:06.913Z,-3.28
2022-12-14T07:22:34.960Z,-3.42
2022-12-14T07:25:01.759Z,-3.41
2022-12-14T07:27:30.637Z,-3.35
2022-12-14T07:29:57.162Z,-3.37
2022-12-14T07:32:23.873Z,-3.40
2022-12-14T07:34:50.602Z,-3.43
2022-12-14T07:37:17.420Z,-3.46
2022-12-14T07:39:43.925Z,-3.26
2022-12-14T07:42:10.686Z,-3.00
2022-12-14T07:44:37.289Z,-2.93
2022-12-14T07:47:03.915Z,-3.17
2022-12-14T07:49:30.579Z,-3.25
2022-12-14T07:51:57.173Z,-3.34
2022-12-14T07:54:26.454Z,-3.41
2022-12-14T07:56:53.015Z,-3.49
2022-12-14T07:59:23.334Z,-3.51
2022-12-14T08:01:52.076Z,-3.26
2022-12-14T08:04:20.282Z,-3.43
2022-12-14T08:06:48.135Z,-3.57
2022-12-14T08:09:15.707Z,-3.58
2022-12-14T08:11:44.744Z,-3.67
2022-12-14T08:14:17.347Z,-3.70
2022-12-14T08:16:44.832Z,-3.74
2022-12-14T08:19:14.936Z,-3.78
2022-12-14T08:21:42.290Z,-3.87
2022-12-14T08:24:11.494Z,-3.86
2022-12-14T08:26:38.204Z,-3.84
2022-12-14T08:29:07.670Z,-3.89
2022-12-14T08:31:36.600Z,-3.95
2022-12-14T08:34:03.350Z,-4.01
2022-12-14T08:36:32.886Z,-4.05
2022-12-14T08:39:06.099Z,-4.02
2022-12-14T08:41:33.263Z,-4.05
2022-12-14T08:44:01.790Z,-4.04
2022-12-14T08:46:29.556Z,-3.98
2022-12-14T08:48:56.953Z,-3.95
2022-12-14T08:51:25.846Z,-3.94
2022-12-14T08:53:55.530Z,-3.90
2022-12-14T08:56:29.846Z,-3.89
2022-12-14T08:58:57.175Z,-3.90
2022-12-14T09:01:34.336Z,-3.91
2022-12-14T09:04:05.021Z,-3.91
2022-12-14T09:06:33.985Z,-3.92
2022-12-14T09:09:00.661Z,-3.90
2022-12-14T09:11:27.595Z,-3.79
2022-12-14T09:13:54.372Z,-3.80
2022-12-14T09:16:22.637Z,-3.79
2022-12-14T09:18:50.413Z,-3.74
2022-12-14T09:21:20.034Z,-3.69
2022-12-14T09:23:51.398Z,-3.66
2022-12-14T09:26:25.992Z,-3.64
2022-12-14T09:28:55.128Z,-3.60
2022-12-14T09:31:25.821Z,-3.58
2022-12-14T09:33:52.700Z,-3.46
2022-12-14T09:36:22.224Z,-3.28
2022-12-14T09:38:52.813Z,-3.11
2022-12-14T09:41:34.418Z,-2.97
2022-12-14T09:44:32.736Z,-2.87
2022-12-14T09:47:29.934Z,-2.79
2022-12-14T09:50:07.101Z,-2.72
2022-12-14T09:52:52.858Z,-2.68
2022-12-14T09:55:33.720Z,-2.61
2022-12-14T09:58:06.420Z,-2.59
2022-12-14T10:00:38.279Z,-2.56
2022-12-14T10:03:24.889Z,-2.43
2022-12-14T10:06:26.687Z,-2.15
2022-12-14T10:09:31.523Z,-1.86
2022-12-14T10:12:10.934Z,-2.00
2022-12-14T10:14:50.107Z,-1.90
2022-12-14T10:17:25.064Z,-1.88
2022-12-14T10:19:57.534Z,-1.75
2022-12-14T10:22:34.943Z,-1.66
2022-12-14T10:25:14.626Z,-1.60
2022-12-14T10:28:09.820Z,-1.55
2022-12-14T10:30:32.155Z,-1.45
2022-12-14T10:33:16.555Z,-1.42
2022-12-14T10:35:55.104Z,-1.31
2022-12-14T10:38:35.407Z,-1.30
2022-12-14T10:41:30.276Z,-1.26
2022-12-14T10:44:19.703Z,-1.17
2022-12-14T10:47:05.041Z,-1.11
2022-12-14T10:49:43.669Z,-1.06
2022-12-14T10:52:20.353Z,-1.00
2022-12-14T10:55:00.988Z,-0.95
2022-12-14T10:57:28.213Z,-0.91
2022-12-14T11:00:08.408Z,-0.84
2022-12-14T11:02:41.795Z,-0.82
2022-12-14T11:05:36.839Z,-0.63
2022-12-14T11:08:07.569Z,-0.54
2022-12-14T11:10:36.254Z,-0.42
2022-12-14T11:13:07.212Z,-0.31
2022-12-14T11:15:43.704Z,-0.24
2022-12-14T11:18:16.541Z,-0.16
2022-12-14T11:20:58.682Z,-0.17
2022-12-14T11:23:38.714Z,-0.11
2022-12-14T11:26:12.386Z,-0.09
2022-12-14T11:28:57.191Z,-0.03
2022-12-14T11:31:25.888Z,0.03
2022-12-14T11:33:55.586Z,0.06
2022-12-14T11:36:24.856Z,0.12
2022-12-14T11:39:01.691Z,0.14
2022-12-14T11:41:42.329Z,0.24
2022-12-14T11:44:15.639Z,0.35
2022-12-14T11:46:48.486Z,0.39
2022-12-14T11:49:25.642Z,0.40
2022-12-14T11:52:04.426Z,0.60
2022-12-14T11:54:36.140Z,0.75
2022-12-14T11:57:10.569Z,0.70
2022-12-14T12:00:00.105Z,0.85
2022-12-14T12:02:34.698Z,0.87
2022-12-14T12:05:13.540Z,0.92
2022-12-14T12:07:50.687Z,0.82
2022-12-14T12:10:50.589Z,0.90
2022-12-14T12:13:25.554Z,0.92
2022-12-14T12:16:00.563Z,1.14
2022-12-14T12:18:50.487Z,1.19
2022-12-14T12:21:30.762Z,1.23
2022-12-14T12:24:16.314Z,1.33
2022-12-14T12:26:53.138Z,1.27
2022-12-14T12:29:19.608Z,1.30
2022-12-14T12:31:59.117Z,1.31
2022-12-14T12:34:54.896Z,1.26
2022-12-14T12:37:35.186Z,1.35
2022-12-14T12:40:26.432Z,1.29
2022-12-14T12:43:02.273Z,1.31
2022-12-14T12:45:44.280Z,1.30
2022-12-14T12:48:23.981Z,1.40
2022-12-14T12:50:55.312Z,1.46
2022-12-14T12:53:37.672Z,1.53
2022-12-14T12:56:08.541Z,1.49
2022-12-14T12:58:37.415Z,1.53
2022-12-14T13:01:39.484Z,1.41
2022-12-14T13:04:12.670Z,1.38
2022-12-14T13:06:50.731Z,1.34
2022-12-14T13:09:42.230Z,1.31
2022-12-14T13:12:34.607Z,1.18
2022-12-14T13:15:07.049Z,1.15
2022-12-14T13:17:35.955Z,1.23
2022-12-14T13:20:06.893Z,1.15
2022-12-14T13:22:36.330Z,1.02
2022-12-14T13:25:13.733Z,0.96
2022-12-14T13:27:49.561Z,0.87
2022-12-14T13:31:07.290Z,0.93
2022-12-14T13:33:52.238Z,0.83
2022-12-14T13:36:30.522Z,0.71
2022-12-14T13:39:25.110Z,0.74
2022-12-14T13:42:05.861Z,0.63
2022-12-14T13:44:45.037Z,0.64
2022-12-14T13:47:26.168Z,0.74
2022-12-14T13:50:34.268Z,0.69
2022-12-14T13:52:49.070Z,0.55
2022-12-14T13:55:31.896Z,0.59
2022-12-14T13:58:13.692Z,0.53
2022-12-14T14:00:49.296Z,0.50
2022-12-14T14:03:34.560Z,0.46
2022-12-14T14:06:16.276Z,0.42
2022-12-14T14:08:44.401Z,0.39
2022-12-14T14:11:39.237Z,0.35
2022-12-14T14:14:18.302Z,0.30
2022-12-14T14:16:49.582Z,0.02
2022-12-14T14:19:23.224Z,0.20
2022-12-14T14:22:24.935Z,0.16
2022-12-14T14:25:22.527Z,0.11
2022-12-14T14:27:52.285Z,0.04
2022-12-14T14:30:27.775Z,-0.03
2022-12-14T14:33:19.998Z,-0.10
2022-12-14T14:35:44.920Z,-0.23
2022-12-14T14:38:27.872Z,-0.24
2022-12-14T14:41:18.009Z,-0.34
2022-12-14T14:43:55.943Z,-0.46
2022-12-14T14:46:34.848Z,-0.58
2022-12-14T14:49:01.630Z,-0.61
2022-12-14T14:51:32.640Z,-0.71
2022-12-14T14:54:46.216Z,-0.74
2022-12-14T14:57:35.292Z,-0.85
2022-12-14T15:00:06.417Z,-1.04
2022-12-14T15:02:43.072Z,-1.14
2022-12-14T15:08:19.712Z,-1.20
2022-12-14T15:10:50.052Z,-1.25
2022-12-14T15:13:31.391Z,-1.34
2022-12-14T15:15:58.291Z,-1.49
2022-12-14T15:18:24.884Z,-1.50
2022-12-14T15:20:54.231Z,-1.57
2022-12-14T15:23:23.398Z,-1.77
2022-12-14T15:25:59.305Z,-1.72
2022-12-14T15:28:27.013Z,-1.77
2022-12-14T15:30:55.112Z,-1.81
2022-12-14T15:33:38.628Z,-1.90
2022-12-14T15:36:14.570Z,-1.95
2022-12-14T15:38:51.734Z,-2.00
2022-12-14T15:41:19.169Z,-2.07
2022-12-14T15:43:49.005Z,-2.09
2022-12-14T15:46:38.585Z,-2.14
2022-12-14T15:49:10.618Z,-2.16
2022-12-14T15:51:43.604Z,-2.16
2022-12-14T15:54:20.794Z,-2.21
2022-12-14T15:56:51.177Z,-2.20
2022-12-14T15:59:23.988Z,-2.25
2022-12-14T16:02:04.820Z,-2.27
2022-12-14T16:04:33.518Z,-2.34
2022-12-14T16:07:09.387Z,-2.31
2022-12-14T16:09:43.813Z,-2.34
2022-12-14T16:12:19.650Z,-2.39
2022-12-14T16:14:54.207Z,-2.42
2022-12-14T16:17:26.857Z,-2.51
2022-12-14T16:20:23.975Z,-2.53
2022-12-14T16:23:15.318Z,-2.58
2022-12-14T16:25:55.970Z,-2.61
2022-12-14T16:28:28.515Z,-2.67
2022-12-14T16:31:00.348Z,-2.69
2022-12-14T16:33:29.667Z,-2.76
2022-12-14T16:36:04.448Z,-2.79
2022-12-14T16:38:32.965Z,-2.88
2022-12-14T16:41:02.310Z,-2.91
2022-12-14T16:43:36.709Z,-3.00
2022-12-14T16:46:03.248Z,-3.02
2022-12-14T16:48:37.048Z,-3.13
2022-12-14T16:51:28.309Z,-3.13
2022-12-14T16:54:21.133Z,-3.18
2022-12-14T16:57:00.891Z,-3.23
2022-12-14T16:59:35.942Z,-3.26
2022-12-14T17:02:03.427Z,-3.36
2022-12-14T17:04:37.510Z,-3.38
2022-12-14T17:07:04.578Z,-3.42
2022-12-14T17:09:36.615Z,-3.41
2022-12-14T17:12:13.567Z,-3.50
2022-12-14T17:14:43.496Z,-3.53
2022-12-14T17:17:22.477Z,-3.51
2022-12-14T17:19:49.329Z,-3.56
2022-12-14T17:22:26.666Z,-3.58
2022-12-14T17:24:53.982Z,-3.68
2022-12-14T17:27:22.233Z,-3.66
2022-12-14T17:29:49.805Z,-3.69
2022-12-14T17:32:17.769Z,-3.71
2022-12-14T17:34:46.143Z,-3.71
2022-12-14T17:37:20.931Z,-3.77
2022-12-14T17:39:47.626Z,-3.78
2022-12-14T17:42:16.805Z,-3.81
2022-12-14T17:44:47.957Z,-3.86
2022-12-14T17:47:14.684Z,-3.95
2022-12-14T17:49:43.006Z,-3.91
2022-12-14T17:52:26.775Z,-3.92
2022-12-14T17:54:53.445Z,-3.98
2022-12-14T17:57:22.749Z,-3.97
2022-12-14T18:00:11.023Z,-4.02
2022-12-14T18:02:44.623Z,-4.02
2022-12-14T18:05:19.221Z,-4.06
2022-12-14T18:07:49.621Z,-4.16
2022-12-14T18:10:20.075Z,-4.19
2022-12-14T18:12:49.382Z,-4.20
2022-12-14T18:15:24.409Z,-4.25
2022-12-14T18:17:53.151Z,-4.21
2022-12-14T18:20:22.799Z,-4.25
2022-12-14T18:22:50.227Z,-4.31
2022-12-14T18:25:33.830Z,-4.33
2022-12-14T18:28:05.930Z,-4.55
2022-12-14T18:30:40.583Z,-4.44
2022-12-14T18:33:16.722Z,-4.47
2022-12-14T18:35:45.027Z,-4.52
2022-12-14T18:38:11.957Z,-4.49
2022-12-14T18:40:39.777Z,-4.48
2022-12-14T18:43:15.593Z,-4.52
2022-12-14T18:45:42.229Z,-4.55
2022-12-14T18:48:08.755Z,-4.61
2022-12-14T18:50:39.539Z,-4.69
2022-12-14T18:53:17.111Z,-4.65
2022-12-14T18:55:43.759Z,-4.69
2022-12-14T18:58:17.227Z,-4.72
2022-12-14T19:00:45.070Z,-4.74
2022-12-14T19:03:12.011Z,-4.74
2022-12-14T19:05:38.643Z,-4.78
2022-12-14T19:08:05.286Z,-4.84
2022-12-14T19:10:41.885Z,-4.84
2022-12-14T19:13:14.690Z,-4.86
2022-12-14T19:15:41.625Z,-4.93
2022-12-14T19:18:10.916Z,-4.90
2022-12-14T19:20:37.503Z,-5.03
2022-12-14T19:23:04.321Z,-5.01
2022-12-14T19:25:33.129Z,-4.98
2022-12-14T19:30:48.082Z,-5.05
2022-12-14T19:33:14.822Z,-5.02
2022-12-14T19:35:42.322Z,-5.05
2022-12-14T19:38:14.586Z,-5.09
2022-12-14T19:40:46.197Z,-5.11
2022-12-14T19:43:13.693Z,-5.08
2022-12-14T19:45:40.276Z,-5.31
2022-12-14T19:48:12.776Z,-5.12
2022-12-14T19:50:39.893Z,-5.18
2022-12-14T19:53:06.582Z,-5.14
2022-12-14T19:55:34.682Z,-5.14
2022-12-14T19:58:01.293Z,-5.17
2022-12-14T20:00:27.997Z,-5.20
2022-12-14T20:02:57.365Z,-5.18
2022-12-14T20:05:23.990Z,-5.18
2022-12-14T20:07:50.489Z,-5.18
2022-12-14T20:10:17.028Z,-5.20
2022-12-14T20:12:45.780Z,-5.22
2022-12-14T20:15:13.038Z,-5.23
2022-12-14T20:17:39.745Z,-5.22
2022-12-14T20:20:06.883Z,-5.24
2022-12-14T20:22:33.495Z,-5.24
2022-12-14T20:25:00.713Z,-5.26
2022-12-14T20:27:27.307Z,-5.46
2022-12-14T20:29:53.883Z,-5.34
2022-12-14T20:32:20.441Z,-5.30
2022-12-14T20:34:47.022Z,-5.27
2022-12-14T20:37:15.800Z,-5.31
2022-12-14T20:39:42.325Z,-5.28
2022-12-14T20:42:11.083Z,-5.25
2022-12-14T20:44:37.646Z,-5.19
2022-12-14T20:47:04.409Z,-5.29
2022-12-14T20:49:34.009Z,-5.23
2022-12-14T20:52:05.038Z,-5.24
2022-12-14T20:54:31.893Z,-5.25
2022-12-14T20:56:58.755Z,-5.26
2022-12-14T20:59:25.421Z,-5.26
2022-12-14T21:01:56.109Z,-5.18
2022-12-14T21:04:23.534Z,-5.20
2022-12-14T21:06:50.293Z,-5.26
2022-12-14T21:09:16.820Z,-5.22
2022-12-14T21:12:07.270Z,-5.19
2022-12-14T21:14:36.839Z,-5.20
2022-12-14T21:17:06.613Z,-5.19
2022-12-14T21:19:36.740Z,-5.24
2022-12-14T21:22:08.076Z,-5.26
2022-12-14T21:25:01.683Z,-5.31
2022-12-14T21:27:30.238Z,-5.25
2022-12-14T21:29:56.733Z,-5.24
2022-12-14T21:32:23.746Z,-5.23
2022-12-14T21:34:50.330Z,-5.26
2022-12-14T21:37:20.406Z,-5.29
2022-12-14T21:39:53.900Z,-5.29
2022-12-14T21:42:25.941Z,-5.26
2022-12-14T21:44:53.739Z,-5.33
2022-12-14T21:47:26.372Z,-5.27
2022-12-14T21:49:53.216Z,-5.31
2022-12-14T21:52:25.715Z,-5.23
2022-12-14T21:54:52.466Z,-5.21
2022-12-14T21:57:40.574Z,-5.20
2022-12-14T22:00:09.016Z,-5.22
2022-12-14T22:02:35.830Z,-5.27
2022-12-14T22:05:04.895Z,-5.19
2022-12-14T22:07:34.600Z,-5.16
2022-12-14T22:10:01.458Z,-5.17
2022-12-14T22:12:30.309Z,-5.24
2022-12-14T22:14:59.142Z,-5.15
2022-12-14T22:17:25.756Z,-5.12
2022-12-14T22:19:55.363Z,-5.10
2022-12-14T22:22:22.715Z,-5.12
2022-12-14T22:24:51.036Z,-5.08
2022-12-14T22:27:18.604Z,-5.07
2022-12-14T22:29:45.300Z,-5.16
2022-12-14T22:32:12.801Z,-5.02
2022-12-14T22:34:39.544Z,-5.03
2022-12-14T22:37:08.442Z,-5.04
2022-12-14T22:39:37.340Z,-5.01
2022-12-14T22:42:04.120Z,-5.03
2022-12-14T22:44:32.886Z,-5.03
2022-12-14T22:46:59.489Z,-5.09
2022-12-14T22:49:26.045Z,-5.11
2022-12-14T22:51:56.460Z,-5.12
2022-12-14T22:54:25.601Z,-5.10
2022-12-14T22:57:02.578Z,-5.02
2022-12-14T22:59:58.621Z,-4.92
2022-12-14T23:02:26.016Z,-4.90
2022-12-14T23:04:52.802Z,-4.88
2022-12-14T23:07:19.342Z,-4.79
2022-12-14T23:10:04.547Z,-4.67
2022-12-14T23:12:52.033Z,-4.59
2022-12-14T23:15:37.447Z,-4.54
2022-12-14T23:18:26.434Z,-4.55
2022-12-14T23:21:12.384Z,-4.55
2022-12-14T23:24:03.283Z,-4.68
2022-12-14T23:26:49.703Z,-4.61
2022-12-14T23:29:34.594Z,-4.65
2022-12-14T23:32:19.856Z,-4.63
2022-12-14T23:35:04.963Z,-4.65
2022-12-14T23:37:50.012Z,-4.73
2022-12-14T23:40:37.425Z,-4.74
2022-12-14T23:43:33.977Z,-4.76
2022-12-14T23:46:20.153Z,-4.74
2022-12-14T23:49:07.185Z,-4.72
2022-12-14T23:51:55.570Z,-4.83
2022-12-14T23:54:40.595Z,-4.84
2022-12-14T23:57:26.224Z,-4.78
